createdAt,value
2023-05-12T00:01:42.614Z,67.51
2023-05-12T00:04:44.139Z,67.58
2023-05-12T00:07:45.659Z,67.40
2023-05-12T00:10:47.273Z,67.53
2023-05-12T00:13:48.910Z,67.41
2023-05-12T00:16:52.049Z,67.64
2023-05-12T00:19:54.472Z,67.88
2023-05-12T00:22:55.993Z,67.70
2023-05-12T00:25:57.540Z,67.52
2023-05-12T00:28:59.022Z,67.75
2023-05-12T00:32:01.161Z,67.76
2023-05-12T00:35:02.916Z,67.96
2023-05-12T00:38:04.588Z,67.71
2023-05-12T00:41:06.154Z,67.80
2023-05-12T00:44:07.946Z,67.29
2023-05-12T00:47:09.640Z,67.71
2023-05-12T00:50:11.694Z,67.94
2023-05-12T00:53:13.350Z,67.82
2023-05-12T00:56:16.804Z,67.72
2023-05-12T00:59:18.380Z,67.87
2023-05-12T01:02:20.256Z,67.78
2023-05-12T01:05:21.985Z,67.71
2023-05-12T01:08:24.700Z,68.21
2023-05-12T01:11:26.858Z,68.38
2023-05-12T01:14:28.381Z,68.02
2023-05-12T01:17:36.029Z,67.97
2023-05-12T01:20:42.722Z,67.96
2023-05-12T01:23:52.010Z,67.83
2023-05-12T01:26:53.543Z,67.83
2023-05-12T01:29:59.931Z,67.78
2023-05-12T01:33:02.285Z,67.78
2023-05-12T01:36:04.517Z,67.95
2023-05-12T01:39:06.003Z,67.74
2023-05-12T01:42:07.591Z,68.11
2023-05-12T01:45:09.728Z,68.26
2023-05-12T01:48:11.312Z,67.93
2023-05-12T01:51:12.830Z,68.00
2023-05-12T01:54:14.616Z,67.98
2023-05-12T01:57:16.091Z,67.86
2023-05-12T02:03:22.150Z,67.86
2023-05-12T02:06:23.750Z,68.00
2023-05-12T02:09:25.439Z,67.69
2023-05-12T02:12:31.044Z,67.69
2023-05-12T02:15:32.735Z,67.73
2023-05-12T02:18:34.375Z,67.87
2023-05-12T02:21:36.042Z,67.86
2023-05-12T02:24:37.819Z,67.68
2023-05-12T02:27:39.590Z,67.44
2023-05-12T02:30:49.405Z,67.54
2023-05-12T02:33:51.590Z,67.76
2023-05-12T02:36:54.108Z,67.80
2023-05-12T02:39:55.720Z,67.57
2023-05-12T02:42:58.403Z,67.69
2023-05-12T02:46:00.255Z,67.77
2023-05-12T02:49:02.384Z,67.18
2023-05-12T02:52:04.361Z,67.60
2023-05-12T02:55:06.050Z,67.66
2023-05-12T02:58:08.039Z,68.10
2023-05-12T03:01:11.558Z,67.81
2023-05-12T03:04:14.505Z,67.63
2023-05-12T03:07:16.121Z,67.84
2023-05-12T03:10:18.764Z,67.91
2023-05-12T03:13:20.543Z,67.75
2023-05-12T03:16:22.390Z,68.13
2023-05-12T03:19:24.219Z,67.80
2023-05-12T03:22:26.063Z,67.86
2023-05-12T03:25:27.701Z,67.91
2023-05-12T03:28:29.262Z,67.80
2023-05-12T03:31:30.837Z,67.87
2023-05-12T03:34:32.367Z,67.58
2023-05-12T03:37:34.471Z,67.59
2023-05-12T03:40:36.716Z,67.90
2023-05-12T03:43:38.271Z,67.52
2023-05-12T03:46:39.974Z,67.72
2023-05-12T03:49:41.563Z,67.48
2023-05-12T03:52:43.330Z,67.73
2023-05-12T03:55:44.778Z,67.63
2023-05-12T03:58:47.270Z,67.36
2023-05-12T04:01:50.556Z,67.45
2023-05-12T04:04:52.705Z,67.70
2023-05-12T04:07:54.957Z,67.46
2023-05-12T04:11:01.359Z,67.55
2023-05-12T04:14:02.730Z,67.45
2023-05-12T04:17:04.480Z,67.69
2023-05-12T04:20:07.256Z,67.63
2023-05-12T04:23:08.690Z,67.80
2023-05-12T04:26:10.202Z,67.44
2023-05-12T04:29:13.224Z,67.93
2023-05-12T04:32:15.384Z,67.75
2023-05-12T04:35:17.022Z,67.98
2023-05-12T04:38:18.651Z,67.78
2023-05-12T04:41:20.785Z,67.73
2023-05-12T04:44:22.959Z,67.67
2023-05-12T04:47:26.099Z,67.69
2023-05-12T04:50:27.660Z,68.32
2023-05-12T04:53:29.189Z,67.91
2023-05-12T04:56:30.626Z,67.74
2023-05-12T04:59:32.621Z,67.76
2023-05-12T05:02:34.628Z,67.56
2023-05-12T05:05:36.199Z,67.50
2023-05-12T05:08:38.981Z,67.57
2023-05-12T05:11:40.612Z,67.60
2023-05-12T05:14:42.144Z,67.56
2023-05-12T05:17:44.416Z,67.27
2023-05-12T05:20:54.668Z,67.37
2023-05-12T05:23:59.495Z,67.49
2023-05-12T05:27:01.124Z,67.34
2023-05-12T05:30:02.804Z,67.19
2023-05-12T05:33:05.249Z,67.08
2023-05-12T05:36:07.824Z,67.23
2023-05-12T05:39:10.437Z,66.73
2023-05-12T05:42:12.048Z,66.80
2023-05-12T05:45:13.629Z,66.85
2023-05-12T05:48:15.852Z,66.98
2023-05-12T05:51:17.465Z,66.84
2023-05-12T05:54:18.997Z,66.81
2023-05-12T05:57:21.288Z,66.84
2023-05-12T06:00:23.719Z,66.40
2023-05-12T06:03:27.564Z,65.91
2023-05-12T06:06:29.687Z,65.62
2023-05-12T06:09:32.252Z,65.82
2023-05-12T06:12:33.762Z,65.23
2023-05-12T06:15:35.684Z,65.60
2023-05-12T06:18:38.254Z,65.56
2023-05-12T06:21:39.929Z,65.28
2023-05-12T06:24:41.927Z,65.15
2023-05-12T06:27:44.620Z,65.13
2023-05-12T06:30:46.531Z,65.09
2023-05-12T06:33:48.053Z,65.16
2023-05-12T06:36:49.648Z,65.10
2023-05-12T06:39:51.889Z,65.46
2023-05-12T06:42:53.458Z,65.36
2023-05-12T06:45:56.715Z,65.28
2023-05-12T06:49:00.147Z,65.32
2023-05-12T06:52:01.751Z,65.49
2023-05-12T06:55:03.473Z,65.39
2023-05-12T06:58:05.011Z,65.48
2023-05-12T07:01:06.560Z,65.35
2023-05-12T07:04:08.124Z,65.75
2023-05-12T07:07:09.735Z,65.74
2023-05-12T07:10:11.572Z,66.20
2023-05-12T07:13:13.195Z,66.37
2023-05-12T07:16:15.844Z,66.34
2023-05-12T07:19:17.445Z,66.31
2023-05-12T07:22:21.223Z,66.44
2023-05-12T07:25:23.171Z,66.02
2023-05-12T07:28:24.980Z,65.99
2023-05-12T07:31:26.528Z,65.92
2023-05-12T07:34:28.095Z,66.12
2023-05-12T07:37:29.851Z,66.05
2023-05-12T07:40:31.357Z,66.35
2023-05-12T07:43:32.903Z,66.13
2023-05-12T07:46:34.408Z,65.98
2023-05-12T07:49:35.900Z,66.01
2023-05-12T07:52:37.381Z,66.19
2023-05-12T07:55:38.909Z,66.45
2023-05-12T07:58:40.576Z,66.62
2023-05-12T08:01:42.919Z,66.39
2023-05-12T08:04:44.568Z,66.78
2023-05-12T08:07:46.276Z,66.43
2023-05-12T08:10:47.791Z,66.90
2023-05-12T08:13:49.304Z,66.91
2023-05-12T08:16:50.979Z,67.00
2023-05-12T08:19:55.359Z,67.20
2023-05-12T08:22:56.886Z,67.19
2023-05-12T08:25:58.431Z,67.19
2023-05-12T08:29:00.006Z,67.23
2023-05-12T08:32:03.329Z,66.94
2023-05-12T08:35:05.335Z,67.09
2023-05-12T08:38:07.289Z,67.19
2023-05-12T08:41:20.087Z,67.11
2023-05-12T08:44:23.849Z,66.70
2023-05-12T08:47:26.224Z,66.69
2023-05-12T08:50:30.960Z,66.79
2023-05-12T08:53:35.151Z,66.67
2023-05-12T08:59:44.426Z,66.41
2023-05-12T09:02:53.848Z,65.66
2023-05-12T09:05:58.189Z,65.67
2023-05-12T09:09:00.244Z,65.62
2023-05-12T09:12:03.081Z,65.61
2023-05-12T09:15:07.861Z,65.62
2023-05-12T09:18:09.378Z,65.79
2023-05-12T09:21:11.842Z,65.62
2023-05-12T09:24:13.437Z,65.33
2023-05-12T09:27:24.656Z,65.23
2023-05-12T09:30:31.548Z,64.74
2023-05-12T09:33:36.063Z,64.23
2023-05-12T09:36:37.646Z,64.15
2023-05-12T09:39:39.247Z,64.26
2023-05-12T09:42:42.406Z,64.04
2023-05-12T09:45:44.293Z,64.08
2023-05-12T09:48:48.826Z,63.21
2023-05-12T09:51:55.889Z,63.37
2023-05-12T09:54:57.391Z,63.15
2023-05-12T09:58:02.081Z,63.32
2023-05-12T10:04:09.356Z,62.69
2023-05-12T10:07:14.154Z,62.20
2023-05-12T10:10:18.682Z,61.95
2023-05-12T10:13:20.288Z,62.21
2023-05-12T10:16:22.428Z,62.00
2023-05-12T10:19:25.614Z,61.70
2023-05-12T10:22:29.801Z,61.68
2023-05-12T10:25:32.556Z,61.86
2023-05-12T10:28:34.103Z,61.77
2023-05-12T10:31:37.334Z,61.83
2023-05-12T10:34:41.880Z,61.98
2023-05-12T10:37:44.429Z,61.99
2023-05-12T10:40:57.946Z,61.67
2023-05-12T10:43:59.698Z,61.51
2023-05-12T10:47:01.546Z,61.55
2023-05-12T10:50:03.202Z,61.53
2023-05-12T10:53:04.812Z,61.72
2023-05-12T10:56:06.927Z,61.66
2023-05-12T10:59:19.728Z,61.15
2023-05-12T11:02:29.933Z,60.77
2023-05-12T11:05:35.519Z,60.49
2023-05-12T11:08:37.925Z,60.27
2023-05-12T11:11:40.377Z,59.74
2023-05-12T11:14:43.895Z,59.83
2023-05-12T11:17:46.418Z,59.30
2023-05-12T11:20:48.426Z,59.34
2023-05-12T11:23:51.056Z,59.08
2023-05-12T11:26:52.531Z,58.96
2023-05-12T11:30:02.565Z,58.48
2023-05-12T11:33:04.406Z,58.48
2023-05-12T11:36:06.710Z,58.52
2023-05-12T11:39:16.774Z,58.37
2023-05-12T11:42:21.070Z,58.58
2023-05-12T11:45:25.069Z,57.40
2023-05-12T11:48:34.562Z,57.38
2023-05-12T11:51:36.221Z,57.28
2023-05-12T11:54:37.765Z,57.06
2023-05-12T11:57:39.496Z,56.99
2023-05-12T12:00:42.047Z,57.11
2023-05-12T12:03:48.713Z,56.51
2023-05-12T12:06:51.555Z,56.57
2023-05-12T12:09:53.010Z,56.69
2023-05-12T12:12:54.541Z,56.79
2023-05-12T12:15:56.047Z,57.06
2023-05-12T12:18:58.298Z,56.88
2023-05-12T12:21:59.939Z,56.68
2023-05-12T12:25:02.467Z,56.77
2023-05-12T12:28:05.109Z,56.63
2023-05-12T12:31:06.681Z,55.62
2023-05-12T12:34:08.456Z,55.54
2023-05-12T12:37:10.047Z,55.05
2023-05-12T12:40:11.850Z,54.56
2023-05-12T12:43:13.878Z,53.86
2023-05-12T12:46:15.416Z,54.08
2023-05-12T12:49:16.903Z,54.07
2023-05-12T12:52:18.634Z,54.29
2023-05-12T12:55:20.990Z,54.63
2023-05-12T12:58:23.255Z,54.71
2023-05-12T13:01:24.855Z,54.73
2023-05-12T13:04:26.808Z,54.64
2023-05-12T13:07:28.363Z,54.81
2023-05-12T13:10:30.145Z,54.66
2023-05-12T13:13:31.679Z,54.55
2023-05-12T13:16:33.356Z,54.25
2023-05-12T13:19:37.753Z,53.76
2023-05-12T13:22:40.731Z,53.35
2023-05-12T13:25:44.790Z,53.05
2023-05-12T13:28:46.263Z,52.19
2023-05-12T13:31:47.772Z,51.64
2023-05-12T13:34:49.266Z,51.33
2023-05-12T13:37:50.734Z,51.60
2023-05-12T13:40:52.439Z,51.36
2023-05-12T13:43:53.903Z,51.14
2023-05-12T13:46:55.392Z,50.87
2023-05-12T13:49:57.276Z,50.50
2023-05-12T13:52:58.756Z,50.40
2023-05-12T13:56:00.242Z,50.10
2023-05-12T13:59:01.800Z,49.49
2023-05-12T14:02:03.982Z,49.51
2023-05-12T14:05:05.934Z,49.27
2023-05-12T14:08:07.407Z,49.25
2023-05-12T14:11:09.064Z,49.36
2023-05-12T14:14:10.618Z,49.33
2023-05-12T14:17:12.473Z,49.16
2023-05-12T14:20:14.944Z,48.63
2023-05-12T14:23:16.594Z,48.64
2023-05-12T14:26:19.245Z,48.96
2023-05-12T14:29:21.132Z,48.99
2023-05-12T14:32:22.683Z,48.51
2023-05-12T14:35:27.446Z,48.44
2023-05-12T14:38:29.385Z,47.97
2023-05-12T14:41:30.912Z,48.30
2023-05-12T14:44:32.516Z,48.39
2023-05-12T14:47:34.047Z,48.47
2023-05-12T14:50:35.703Z,48.38
2023-05-12T14:53:37.196Z,48.45
2023-05-12T14:56:38.678Z,48.34
2023-05-12T14:59:40.188Z,47.90
2023-05-12T15:02:43.860Z,47.39
2023-05-12T15:06:04.683Z,47.26
2023-05-12T15:09:08.399Z,47.26
2023-05-12T15:12:10.210Z,47.21
2023-05-12T15:15:12.187Z,47.04
2023-05-12T15:18:13.744Z,46.89
2023-05-12T15:21:15.297Z,47.16
2023-05-12T15:24:16.822Z,47.20
2023-05-12T15:27:18.317Z,47.75
2023-05-12T15:30:19.912Z,47.58
2023-05-12T15:33:21.426Z,47.89
2023-05-12T15:36:23.032Z,47.36
2023-05-12T15:39:24.599Z,47.17
2023-05-12T15:42:32.572Z,46.75
2023-05-12T15:45:37.780Z,47.15
2023-05-12T15:48:39.690Z,47.40
2023-05-12T15:51:41.290Z,47.39
2023-05-12T15:54:42.734Z,47.85
2023-05-12T15:57:44.320Z,47.96
2023-05-12T16:00:46.441Z,48.20
2023-05-12T16:03:49.813Z,48.12
2023-05-12T16:06:51.339Z,48.04
2023-05-12T16:09:52.827Z,47.46
2023-05-12T16:12:54.326Z,47.55
2023-05-12T16:15:55.796Z,47.33
2023-05-12T16:18:57.329Z,47.36
2023-05-12T16:21:59.931Z,47.46
2023-05-12T16:25:01.515Z,47.06
2023-05-12T16:28:03.863Z,47.44
2023-05-12T16:31:05.573Z,47.34
2023-05-12T16:34:07.438Z,47.71
2023-05-12T16:37:09.104Z,47.98
2023-05-12T16:40:10.833Z,47.92
2023-05-12T16:43:12.369Z,48.11
2023-05-12T16:46:13.953Z,48.68
2023-05-12T16:49:15.482Z,48.75
2023-05-12T16:52:16.967Z,48.94
2023-05-12T16:55:18.874Z,49.42
2023-05-12T16:58:20.961Z,49.22
2023-05-12T17:01:22.502Z,49.35
2023-05-12T17:04:24.005Z,49.67
2023-05-12T17:07:26.331Z,49.93
2023-05-12T17:10:27.812Z,49.85
2023-05-12T17:13:29.276Z,49.43
2023-05-12T17:16:30.783Z,49.48
2023-05-12T17:19:33.007Z,50.11
2023-05-12T17:22:37.155Z,49.92
2023-05-12T17:25:39.621Z,49.89
2023-05-12T17:28:41.133Z,50.25
2023-05-12T17:31:42.923Z,49.98
2023-05-12T17:34:44.449Z,49.87
2023-05-12T17:37:45.967Z,49.89
2023-05-12T17:40:47.505Z,49.96
2023-05-12T17:43:49.009Z,49.91
2023-05-12T17:46:50.599Z,50.12
2023-05-12T17:49:52.416Z,50.12
2023-05-12T17:52:55.034Z,50.22
2023-05-12T17:55:57.149Z,50.37
2023-05-12T17:58:58.613Z,50.48
2023-05-12T18:02:00.439Z,50.67
2023-05-12T18:05:01.986Z,50.80
2023-05-12T18:08:03.553Z,51.17
2023-05-12T18:11:05.080Z,51.42
2023-05-12T18:14:07.104Z,51.68
2023-05-12T18:17:08.621Z,52.19
2023-05-12T18:20:10.479Z,52.23
2023-05-12T18:23:11.980Z,52.61
2023-05-12T18:26:13.547Z,52.74
2023-05-12T18:29:15.044Z,53.11
2023-05-12T18:32:16.719Z,53.22
2023-05-12T18:35:18.301Z,53.29
2023-05-12T18:38:19.818Z,53.51
2023-05-12T18:41:21.575Z,53.66
2023-05-12T18:44:23.178Z,53.63
2023-05-12T18:47:24.742Z,53.66
2023-05-12T18:50:26.458Z,53.78
2023-05-12T18:53:28.049Z,53.58
2023-05-12T18:56:29.719Z,53.92
2023-05-12T18:59:31.310Z,53.65
2023-05-12T19:02:32.889Z,53.62
2023-05-12T19:05:35.039Z,53.47
2023-05-12T19:08:36.602Z,53.66
2023-05-12T19:11:38.082Z,54.02
2023-05-12T19:14:40.548Z,54.09
2023-05-12T19:17:42.091Z,53.93
2023-05-12T19:20:43.601Z,53.94
2023-05-12T19:23:45.189Z,53.94
2023-05-12T19:26:46.678Z,54.39
2023-05-12T19:29:48.705Z,54.16
2023-05-12T19:32:50.331Z,53.78
2023-05-12T19:35:52.421Z,54.21
2023-05-12T19:38:53.880Z,54.07
2023-05-12T19:41:55.450Z,53.78
2023-05-12T19:44:57.603Z,54.01
2023-05-12T19:47:59.280Z,53.62
2023-05-12T19:51:00.788Z,53.54
2023-05-12T19:54:04.705Z,54.02
2023-05-12T19:57:06.326Z,53.87
2023-05-12T20:00:08.444Z,54.00
2023-05-12T20:03:17.521Z,54.11
2023-05-12T20:06:20.196Z,54.28
2023-05-12T20:09:23.088Z,54.16
2023-05-12T20:12:24.532Z,54.41
2023-05-12T20:15:26.062Z,54.36
2023-05-12T20:18:28.741Z,54.54
2023-05-12T20:21:31.337Z,54.36
2023-05-12T20:24:32.851Z,54.44
2023-05-12T20:27:34.313Z,54.43
2023-05-12T20:30:36.156Z,54.70
2023-05-12T20:33:37.626Z,54.37
2023-05-12T20:36:39.115Z,54.39
2023-05-12T20:39:41.603Z,54.75
2023-05-12T20:42:45.729Z,54.74
2023-05-12T20:45:47.316Z,54.67
2023-05-12T20:48:48.785Z,54.57
2023-05-12T20:51:50.424Z,54.60
2023-05-12T20:55:01.207Z,54.68
2023-05-12T20:58:02.764Z,55.12
2023-05-12T21:01:04.263Z,55.59
2023-05-12T21:04:05.891Z,55.36
2023-05-12T21:07:07.415Z,55.82
2023-05-12T21:10:09.134Z,56.19
2023-05-12T21:13:10.580Z,55.62
2023-05-12T21:16:12.067Z,55.50
2023-05-12T21:19:13.578Z,55.83
2023-05-12T21:22:15.606Z,56.02
2023-05-12T21:25:17.434Z,56.27
2023-05-12T21:28:19.006Z,56.19
2023-05-12T21:31:20.559Z,56.39
2023-05-12T21:34:22.110Z,56.53
2023-05-12T21:37:23.590Z,56.20
2023-05-12T21:40:25.082Z,56.52
2023-05-12T21:43:26.599Z,56.56
2023-05-12T21:46:28.102Z,56.66
2023-05-12T21:49:29.686Z,57.11
2023-05-12T21:52:31.171Z,56.96
2023-05-12T21:55:32.723Z,56.69
2023-05-12T21:58:34.242Z,57.25
2023-05-12T22:01:35.851Z,57.30
2023-05-12T22:04:37.371Z,56.95
2023-05-12T22:07:38.864Z,57.31
2023-05-12T22:10:40.440Z,57.23
2023-05-12T22:13:42.037Z,57.56
2023-05-12T22:16:43.503Z,57.67
2023-05-12T22:19:44.991Z,57.98
2023-05-12T22:22:46.506Z,57.77
2023-05-12T22:25:48.044Z,57.84
2023-05-12T22:28:49.528Z,57.95
2023-05-12T22:31:51.048Z,58.06
2023-05-12T22:34:53.530Z,58.15
2023-05-12T22:37:55.043Z,58.54
2023-05-12T22:40:56.494Z,58.37
2023-05-12T22:43:57.950Z,58.91
2023-05-12T22:46:59.528Z,58.58
2023-05-12T22:50:01.265Z,59.01
2023-05-12T22:53:02.729Z,58.62
2023-05-12T22:56:04.477Z,58.61
2023-05-12T22:59:05.931Z,59.10
2023-05-12T23:02:07.432Z,58.68
2023-05-12T23:05:09.612Z,58.64
2023-05-12T23:08:11.097Z,58.46
2023-05-12T23:11:12.853Z,58.51
2023-05-12T23:14:14.351Z,58.77
2023-05-12T23:17:15.893Z,58.88
2023-05-12T23:20:17.352Z,58.98
2023-05-12T23:23:18.796Z,58.75
2023-05-12T23:26:20.701Z,58.39
2023-05-12T23:29:22.154Z,58.05
2023-05-12T23:32:23.779Z,58.24
2023-05-12T23:35:26.117Z,58.40
2023-05-12T23:38:27.589Z,58.54
2023-05-12T23:41:31.664Z,58.50
2023-05-12T23:44:33.216Z,58.11
2023-05-12T23:47:34.722Z,58.48
2023-05-12T23:50:36.206Z,58.57
2023-05-12T23:53:37.682Z,59.11
2023-05-12T23:56:39.216Z,58.74
2023-05-12T23:59:40.674Z,58.45
